sensor_id;sensor_type;location;lat;lon;timestamp;pressure;altitude;pressure_sealevel;temperature;humidity
4981;BME280;2507;50.392;7.482;2023-02-28T00:00:08;101985.09;;;3.19;60.05
4981;BME280;2507;50.392;7.482;2023-02-28T00:02:38;101992.94;;;3.16;60.26
4981;BME280;2507;50.392;7.482;2023-02-28T00:05:05;101988.59;;;3.14;60.37
4981;BME280;2507;50.392;7.482;2023-02-28T00:07:31;101992.06;;;3.15;60.44
4981;BME280;2507;50.392;7.482;2023-02-28T00:09:57;101986.81;;;3.20;59.78
4981;BME280;2507;50.392;7.482;2023-02-28T00:12:22;101987.47;;;3.31;59.59
4981;BME280;2507;50.392;7.482;2023-02-28T00:14:48;101984.22;;;3.20;60.01
4981;BME280;2507;50.392;7.482;2023-02-28T00:17:13;101987.50;;;3.28;59.50
4981;BME280;2507;50.392;7.482;2023-02-28T00:19:38;101988.66;;;3.13;59.58
4981;BME280;2507;50.392;7.482;2023-02-28T00:22:04;101984.63;;;2.97;60.19
4981;BME280;2507;50.392;7.482;2023-02-28T00:24:29;101989.25;;;2.78;60.55
4981;BME280;2507;50.392;7.482;2023-02-28T00:26:54;101986.81;;;2.69;61.16
4981;BME280;2507;50.392;7.482;2023-02-28T00:29:19;101992.88;;;2.68;60.81
4981;BME280;2507;50.392;7.482;2023-02-28T00:31:45;101989.56;;;2.62;61.65
4981;BME280;2507;50.392;7.482;2023-02-28T00:34:10;101988.69;;;2.61;61.81
4981;BME280;2507;50.392;7.482;2023-02-28T00:36:35;101992.13;;;2.60;61.18
4981;BME280;2507;50.392;7.482;2023-02-28T00:39:00;101998.28;;;2.56;61.06
4981;BME280;2507;50.392;7.482;2023-02-28T00:41:26;101992.34;;;2.48;61.71
4981;BME280;2507;50.392;7.482;2023-02-28T00:43:51;101991.44;;;2.49;61.80
4981;BME280;2507;50.392;7.482;2023-02-28T00:46:16;101993.16;;;2.52;60.90
4981;BME280;2507;50.392;7.482;2023-02-28T00:48:42;101995.91;;;2.41;61.76
4981;BME280;2507;50.392;7.482;2023-02-28T00:51:07;101994.31;;;2.31;62.58
4981;BME280;2507;50.392;7.482;2023-02-28T00:53:32;101988.25;;;2.34;62.06
4981;BME280;2507;50.392;7.482;2023-02-28T00:55:58;101990.31;;;2.11;63.18
4981;BME280;2507;50.392;7.482;2023-02-28T00:58:24;101999.97;;;1.98;63.64
4981;BME280;2507;50.392;7.482;2023-02-28T01:00:50;102000.94;;;1.89;64.11
4981;BME280;2507;50.392;7.482;2023-02-28T01:03:17;102007.03;;;1.87;63.68
4981;BME280;2507;50.392;7.482;2023-02-28T01:05:42;101994.09;;;1.87;63.59
4981;BME280;2507;50.392;7.482;2023-02-28T01:08:08;101996.59;;;1.91;63.64
4981;BME280;2507;50.392;7.482;2023-02-28T01:10:33;101996.56;;;1.93;63.56
4981;BME280;2507;50.392;7.482;2023-02-28T01:12:58;101994.09;;;1.87;64.00
4981;BME280;2507;50.392;7.482;2023-02-28T01:15:24;101987.97;;;1.91;63.93
4981;BME280;2507;50.392;7.482;2023-02-28T01:17:49;101995.75;;;1.89;63.46
4981;BME280;2507;50.392;7.482;2023-02-28T01:20:14;101998.44;;;1.85;63.35
4981;BME280;2507;50.392;7.482;2023-02-28T01:22:40;101992.44;;;1.78;63.77
4981;BME280;2507;50.392;7.482;2023-02-28T01:25:05;101998.56;;;1.74;64.48
4981;BME280;2507;50.392;7.482;2023-02-28T01:27:31;101993.47;;;1.68;64.04
4981;BME280;2507;50.392;7.482;2023-02-28T01:29:56;101992.69;;;1.62;64.51
4981;BME280;2507;50.392;7.482;2023-02-28T01:32:21;101991.88;;;1.55;64.76
4981;BME280;2507;50.392;7.482;2023-02-28T01:34:47;101998.72;;;1.61;64.61
4981;BME280;2507;50.392;7.482;2023-02-28T01:37:12;102001.47;;;1.47;65.56
4981;BME280;2507;50.392;7.482;2023-02-28T01:39:37;101991.16;;;1.44;65.91
4981;BME280;2507;50.392;7.482;2023-02-28T01:42:03;101989.28;;;1.55;65.38
4981;BME280;2507;50.392;7.482;2023-02-28T01:45:00;101995.44;;;1.47;65.35
4981;BME280;2507;50.392;7.482;2023-02-28T01:47:32;101997.97;;;1.50;66.20
4981;BME280;2507;50.392;7.482;2023-02-28T01:50:00;101991.81;;;1.61;65.49
4981;BME280;2507;50.392;7.482;2023-02-28T01:52:27;101992.66;;;1.63;64.87
4981;BME280;2507;50.392;7.482;2023-02-28T01:54:59;101985.66;;;1.71;64.92
4981;BME280;2507;50.392;7.482;2023-02-28T01:57:30;101995.22;;;1.65;63.90
4981;BME280;2507;50.392;7.482;2023-02-28T02:00:06;101993.63;;;1.56;64.10
4981;BME280;2507;50.392;7.482;2023-02-28T02:02:33;101993.59;;;1.58;64.01
4981;BME280;2507;50.392;7.482;2023-02-28T02:05:04;101996.31;;;1.44;64.17
4981;BME280;2507;50.392;7.482;2023-02-28T02:07:32;101987.88;;;1.30;64.89
4981;BME280;2507;50.392;7.482;2023-02-28T02:10:20;101993.09;;;1.23;65.09
4981;BME280;2507;50.392;7.482;2023-02-28T02:15:35;101983.78;;;1.08;65.73
4981;BME280;2507;50.392;7.482;2023-02-28T02:18:17;101981.25;;;1.05;66.64
4981;BME280;2507;50.392;7.482;2023-02-28T02:21:15;101985.56;;;1.03;66.94
4981;BME280;2507;50.392;7.482;2023-02-28T02:29:40;101979.00;;;1.52;65.76
4981;BME280;2507;50.392;7.482;2023-02-28T02:35:14;101966.69;;;1.69;64.79
4981;BME280;2507;50.392;7.482;2023-02-28T02:37:47;101970.09;;;1.73;64.43
4981;BME280;2507;50.392;7.482;2023-02-28T02:40:23;101967.38;;;1.85;63.83
4981;BME280;2507;50.392;7.482;2023-02-28T02:42:56;101973.28;;;1.94;63.32
4981;BME280;2507;50.392;7.482;2023-02-28T02:45:28;101974.00;;;2.04;62.80
4981;BME280;2507;50.392;7.482;2023-02-28T02:47:56;101972.78;;;2.28;62.00
4981;BME280;2507;50.392;7.482;2023-02-28T02:50:29;101972.91;;;2.22;61.04
4981;BME280;2507;50.392;7.482;2023-02-28T02:52:59;101972.56;;;2.43;61.07
4981;BME280;2507;50.392;7.482;2023-02-28T02:55:26;101973.63;;;2.30;60.39
4981;BME280;2507;50.392;7.482;2023-02-28T02:57:59;101973.75;;;2.22;60.32
4981;BME280;2507;50.392;7.482;2023-02-28T03:00:35;101976.50;;;2.10;60.82
4981;BME280;2507;50.392;7.482;2023-02-28T03:03:02;101980.22;;;1.92;61.35
4981;BME280;2507;50.392;7.482;2023-02-28T03:05:41;101976.91;;;1.81;62.12
4981;BME280;2507;50.392;7.482;2023-02-28T03:08:07;101981.41;;;1.66;62.11
4981;BME280;2507;50.392;7.482;2023-02-28T03:10:41;101983.16;;;1.65;62.20
4981;BME280;2507;50.392;7.482;2023-02-28T03:16:36;101975.66;;;1.43;62.26
4981;BME280;2507;50.392;7.482;2023-02-28T03:30:49;101974.97;;;1.26;62.31
4981;BME280;2507;50.392;7.482;2023-02-28T03:33:23;101981.25;;;1.03;62.96
4981;BME280;2507;50.392;7.482;2023-02-28T03:35:56;101977.00;;;0.96;63.00
4981;BME280;2507;50.392;7.482;2023-02-28T03:38:31;101981.34;;;0.91;63.00
4981;BME280;2507;50.392;7.482;2023-02-28T03:41:07;101985.72;;;0.85;62.88
4981;BME280;2507;50.392;7.482;2023-02-28T03:43:38;101980.66;;;0.76;63.10
4981;BME280;2507;50.392;7.482;2023-02-28T03:46:08;101983.28;;;0.68;63.17
4981;BME280;2507;50.392;7.482;2023-02-28T03:48:44;101986.75;;;0.66;64.20
4981;BME280;2507;50.392;7.482;2023-02-28T03:51:15;101980.88;;;0.49;64.38
4981;BME280;2507;50.392;7.482;2023-02-28T03:53:45;101984.31;;;0.48;64.37
4981;BME280;2507;50.392;7.482;2023-02-28T03:56:27;101980.91;;;0.38;64.20
4981;BME280;2507;50.392;7.482;2023-02-28T03:59:04;101989.50;;;0.43;64.34
4981;BME280;2507;50.392;7.482;2023-02-28T04:01:38;101983.56;;;0.34;64.15
4981;BME280;2507;50.392;7.482;2023-02-28T04:04:06;101987.06;;;0.22;64.45
4981;BME280;2507;50.392;7.482;2023-02-28T04:06:33;101991.38;;;0.19;64.84
4981;BME280;2507;50.392;7.482;2023-02-28T04:08:59;101985.44;;;0.09;64.92
4981;BME280;2507;50.392;7.482;2023-02-28T04:11:42;102006.13;;;0.00;65.58
4981;BME280;2507;50.392;7.482;2023-02-28T04:14:10;101985.50;;;0.00;65.66
4981;BME280;2507;50.392;7.482;2023-02-28T04:16:38;101984.66;;;-0.02;65.71
4981;BME280;2507;50.392;7.482;2023-02-28T04:19:05;101987.16;;;0.09;64.97
4981;BME280;2507;50.392;7.482;2023-02-28T04:21:51;101992.31;;;0.10;65.20
4981;BME280;2507;50.392;7.482;2023-02-28T04:24:20;101989.78;;;0.01;65.10
4981;BME280;2507;50.392;7.482;2023-02-28T04:26:47;101980.34;;;-0.06;65.62
4981;BME280;2507;50.392;7.482;2023-02-28T04:29:17;102003.59;;;-0.12;65.40
4981;BME280;2507;50.392;7.482;2023-02-28T04:31:44;101992.41;;;-0.14;65.66
4981;BME280;2507;50.392;7.482;2023-02-28T04:34:09;101985.56;;;-0.15;65.51
4981;BME280;2507;50.392;7.482;2023-02-28T04:36:34;101990.75;;;-0.17;65.70
4981;BME280;2507;50.392;7.482;2023-02-28T04:39:00;101992.44;;;-0.22;65.97
4981;BME280;2507;50.392;7.482;2023-02-28T04:41:25;101994.19;;;-0.24;65.97
4981;BME280;2507;50.392;7.482;2023-02-28T04:43:51;101992.38;;;-0.05;66.80
4981;BME280;2507;50.392;7.482;2023-02-28T04:46:17;101996.72;;;-0.10;65.92
4981;BME280;2507;50.392;7.482;2023-02-28T04:48:43;101999.19;;;0.08;66.09
4981;BME280;2507;50.392;7.482;2023-02-28T04:51:11;101989.69;;;0.13;65.64
4981;BME280;2507;50.392;7.482;2023-02-28T04:53:39;101997.41;;;0.15;65.55
4981;BME280;2507;50.392;7.482;2023-02-28T04:56:06;101999.09;;;0.26;65.06
4981;BME280;2507;50.392;7.482;2023-02-28T04:58:32;102006.91;;;0.14;65.20
4981;BME280;2507;50.392;7.482;2023-02-28T05:03:50;102002.72;;;-0.07;65.12
4981;BME280;2507;50.392;7.482;2023-02-28T05:06:17;102007.03;;;-0.06;65.35
4981;BME280;2507;50.392;7.482;2023-02-28T05:08:42;102008.78;;;-0.20;65.59
4981;BME280;2507;50.392;7.482;2023-02-28T05:11:23;102007.91;;;-0.14;66.47
4981;BME280;2507;50.392;7.482;2023-02-28T05:13:49;102013.91;;;-0.14;65.63
4981;BME280;2507;50.392;7.482;2023-02-28T05:16:16;102005.38;;;-0.25;65.73
4981;BME280;2507;50.392;7.482;2023-02-28T05:18:42;102012.25;;;-0.27;66.05
4981;BME280;2507;50.392;7.482;2023-02-28T05:21:40;102011.38;;;-0.27;65.91
4981;BME280;2507;50.392;7.482;2023-02-28T05:24:09;102014.00;;;-0.33;66.16
4981;BME280;2507;50.392;7.482;2023-02-28T05:26:37;102012.31;;;-0.45;66.31
4981;BME280;2507;50.392;7.482;2023-02-28T05:29:03;102018.34;;;-0.44;66.56
4981;BME280;2507;50.392;7.482;2023-02-28T05:31:28;102011.44;;;-0.41;66.71
4981;BME280;2507;50.392;7.482;2023-02-28T05:33:53;102018.34;;;-0.44;66.53
4981;BME280;2507;50.392;7.482;2023-02-28T05:36:21;102014.94;;;-0.49;66.37
4981;BME280;2507;50.392;7.482;2023-02-28T05:38:47;102014.94;;;-0.55;66.89
4981;BME280;2507;50.392;7.482;2023-02-28T05:41:13;102017.53;;;-0.61;66.86
4981;BME280;2507;50.392;7.482;2023-02-28T05:43:38;102020.09;;;-0.63;66.89
4981;BME280;2507;50.392;7.482;2023-02-28T05:46:09;102024.41;;;-0.66;67.04
4981;BME280;2507;50.392;7.482;2023-02-28T05:48:36;102033.00;;;-0.64;67.55
4981;BME280;2507;50.392;7.482;2023-02-28T05:51:02;102021.81;;;-0.60;67.77
4981;BME280;2507;50.392;7.482;2023-02-28T05:53:28;102025.19;;;-0.43;67.42
4981;BME280;2507;50.392;7.482;2023-02-28T05:55:53;102020.81;;;-0.16;66.52
4981;BME280;2507;50.392;7.482;2023-02-28T05:58:18;102026.78;;;-0.09;65.90
4981;BME280;2507;50.392;7.482;2023-02-28T06:00:44;102021.56;;;0.05;65.33
4981;BME280;2507;50.392;7.482;2023-02-28T06:03:09;102017.28;;;0.04;65.00
4981;BME280;2507;50.392;7.482;2023-02-28T06:05:34;102024.22;;;-0.12;64.88
4981;BME280;2507;50.392;7.482;2023-02-28T06:08:00;102017.28;;;-0.01;65.28
4981;BME280;2507;50.392;7.482;2023-02-28T06:10:25;102024.19;;;-0.03;64.40
4981;BME280;2507;50.392;7.482;2023-02-28T06:12:50;102024.22;;;-0.06;64.65
4981;BME280;2507;50.392;7.482;2023-02-28T06:15:16;102025.06;;;-0.07;64.50
4981;BME280;2507;50.392;7.482;2023-02-28T06:17:43;102018.22;;;-0.16;64.22
4981;BME280;2507;50.392;7.482;2023-02-28T06:20:10;102026.00;;;-0.23;64.29
4981;BME280;2507;50.392;7.482;2023-02-28T06:22:38;102022.56;;;-0.27;64.47
4981;BME280;2507;50.392;7.482;2023-02-28T06:25:04;102026.03;;;-0.29;64.35
4981;BME280;2507;50.392;7.482;2023-02-28T06:27:31;102033.75;;;-0.26;64.57
4981;BME280;2507;50.392;7.482;2023-02-28T06:29:57;102035.44;;;-0.19;64.32
4981;BME280;2507;50.392;7.482;2023-02-28T06:32:22;102037.16;;;-0.20;64.10
4981;BME280;2507;50.392;7.482;2023-02-28T06:34:47;102032.00;;;-0.20;64.52
4981;BME280;2507;50.392;7.482;2023-02-28T06:37:13;102039.69;;;-0.09;64.34
4981;BME280;2507;50.392;7.482;2023-02-28T06:39:38;102040.44;;;0.14;64.12
4981;BME280;2507;50.392;7.482;2023-02-28T06:42:04;102035.22;;;0.20;63.41
4981;BME280;2507;50.392;7.482;2023-02-28T06:44:29;102035.25;;;0.23;64.20
4981;BME280;2507;50.392;7.482;2023-02-28T06:47:01;102043.78;;;0.34;63.47
4981;BME280;2507;50.392;7.482;2023-02-28T06:49:28;102045.41;;;0.50;62.93
4981;BME280;2507;50.392;7.482;2023-02-28T06:51:54;102046.91;;;0.77;62.66
4981;BME280;2507;50.392;7.482;2023-02-28T06:54:19;102052.75;;;1.01;61.72
4981;BME280;2507;50.392;7.482;2023-02-28T06:56:44;102056.84;;;1.27;60.75
4981;BME280;2507;50.392;7.482;2023-02-28T06:59:09;102056.66;;;1.45;60.00
4981;BME280;2507;50.392;7.482;2023-02-28T07:01:35;102059.09;;;1.57;59.83
4981;BME280;2507;50.392;7.482;2023-02-28T07:04:00;102057.22;;;1.72;59.70
4981;BME280;2507;50.392;7.482;2023-02-28T07:06:26;102065.72;;;1.80;58.91
4981;BME280;2507;50.392;7.482;2023-02-28T07:08:52;102062.97;;;1.95;58.82
4981;BME280;2507;50.392;7.482;2023-02-28T07:11:19;102059.38;;;2.05;58.14
4981;BME280;2507;50.392;7.482;2023-02-28T07:13:44;102058.41;;;2.16;57.76
4981;BME280;2507;50.392;7.482;2023-02-28T07:16:10;102065.84;;;2.41;56.78
4981;BME280;2507;50.392;7.482;2023-02-28T07:18:37;102063.13;;;2.49;55.91
4981;BME280;2507;50.392;7.482;2023-02-28T07:21:04;102071.38;;;2.75;55.18
4981;BME280;2507;50.392;7.482;2023-02-28T07:23:30;102064.19;;;2.92;54.53
4981;BME280;2507;50.392;7.482;2023-02-28T07:25:55;102070.88;;;3.06;54.12
4981;BME280;2507;50.392;7.482;2023-02-28T07:28:21;102070.63;;;3.22;53.13
4981;BME280;2507;50.392;7.482;2023-02-28T07:30:46;102068.94;;;3.19;53.21
4981;BME280;2507;50.392;7.482;2023-02-28T07:33:13;102076.63;;;3.25;52.51
4981;BME280;2507;50.392;7.482;2023-02-28T07:35:38;102073.88;;;3.34;51.57
4981;BME280;2507;50.392;7.482;2023-02-28T07:38:03;102080.53;;;3.49;51.77
4981;BME280;2507;50.392;7.482;2023-02-28T07:40:28;102075.56;;;3.35;51.90
4981;BME280;2507;50.392;7.482;2023-02-28T07:42:54;102074.66;;;3.38;51.74
4981;BME280;2507;50.392;7.482;2023-02-28T07:45:24;102073.06;;;3.31;51.82
4981;BME280;2507;50.392;7.482;2023-02-28T07:47:50;102073.34;;;3.14;51.93
4981;BME280;2507;50.392;7.482;2023-02-28T07:50:15;102071.66;;;3.11;52.18
4981;BME280;2507;50.392;7.482;2023-02-28T07:52:41;102068.09;;;3.17;51.58
4981;BME280;2507;50.392;7.482;2023-02-28T07:55:08;102074.19;;;3.14;51.71
4981;BME280;2507;50.392;7.482;2023-02-28T07:57:34;102068.91;;;3.21;51.42
4981;BME280;2507;50.392;7.482;2023-02-28T07:59:59;102073.75;;;3.39;51.59
4981;BME280;2507;50.392;7.482;2023-02-28T08:02:24;102062.97;;;3.61;51.50
4981;BME280;2507;50.392;7.482;2023-02-28T08:04:50;102070.38;;;3.81;50.95
4981;BME280;2507;50.392;7.482;2023-02-28T08:07:16;102065.94;;;3.86;50.42
4981;BME280;2507;50.392;7.482;2023-02-28T08:09:43;102066.38;;;4.07;50.20
4981;BME280;2507;50.392;7.482;2023-02-28T08:12:09;102057.56;;;4.16;49.91
4981;BME280;2507;50.392;7.482;2023-02-28T08:14:35;102054.34;;;4.43;49.84
4981;BME280;2507;50.392;7.482;2023-02-28T08:17:00;102052.78;;;4.73;49.58
4981;BME280;2507;50.392;7.482;2023-02-28T08:19:25;102045.66;;;4.81;48.18
4981;BME280;2507;50.392;7.482;2023-02-28T08:21:51;102053.44;;;4.82;48.04
4981;BME280;2507;50.392;7.482;2023-02-28T08:24:16;102054.72;;;5.01;47.57
4981;BME280;2507;50.392;7.482;2023-02-28T08:26:41;102056.81;;;5.21;47.62
4981;BME280;2507;50.392;7.482;2023-02-28T08:29:07;102056.53;;;5.32;46.73
4981;BME280;2507;50.392;7.482;2023-02-28T08:31:32;102043.81;;;5.85;46.48
4981;BME280;2507;50.392;7.482;2023-02-28T08:33:58;102042.34;;;6.06;44.99
4981;BME280;2507;50.392;7.482;2023-02-28T08:36:24;102059.06;;;6.28;44.29
4981;BME280;2507;50.392;7.482;2023-02-28T08:38:50;102049.75;;;6.49;43.72
4981;BME280;2507;50.392;7.482;2023-02-28T08:41:15;102040.63;;;6.34;44.03
4981;BME280;2507;50.392;7.482;2023-02-28T08:43:40;102030.56;;;5.93;43.41
4981;BME280;2507;50.392;7.482;2023-02-28T08:46:07;102037.66;;;6.17;43.30
4981;BME280;2507;50.392;7.482;2023-02-28T08:48:34;102037.97;;;6.36;43.15
4981;BME280;2507;50.392;7.482;2023-02-28T08:51:05;102030.00;;;6.12;43.19
4981;BME280;2507;50.392;7.482;2023-02-28T08:53:31;102038.56;;;6.16;42.91
4981;BME280;2507;50.392;7.482;2023-02-28T08:55:59;102029.97;;;5.83;41.87
4981;BME280;2507;50.392;7.482;2023-02-28T08:58:25;102030.44;;;5.97;42.42
4981;BME280;2507;50.392;7.482;2023-02-28T09:00:51;102036.78;;;6.46;41.40
4981;BME280;2507;50.392;7.482;2023-02-28T09:03:16;102042.31;;;6.35;39.72
4981;BME280;2507;50.392;7.482;2023-02-28T09:05:51;102034.66;;;5.39;41.17
4981;BME280;2507;50.392;7.482;2023-02-28T09:08:17;102041.81;;;5.31;41.96
4981;BME280;2507;50.392;7.482;2023-02-28T09:10:42;102037.22;;;5.72;42.76
4981;BME280;2507;50.392;7.482;2023-02-28T09:13:07;102026.41;;;5.86;41.87
4981;BME280;2507;50.392;7.482;2023-02-28T09:15:32;102021.44;;;6.07;39.16
4981;BME280;2507;50.392;7.482;2023-02-28T09:17:58;102030.97;;;6.08;38.77
4981;BME280;2507;50.392;7.482;2023-02-28T09:20:23;102030.13;;;6.08;38.05
4981;BME280;2507;50.392;7.482;2023-02-28T09:22:48;102022.41;;;5.74;38.43
4981;BME280;2507;50.392;7.482;2023-02-28T09:25:14;102019.66;;;5.48;38.28
4981;BME280;2507;50.392;7.482;2023-02-28T09:27:39;102029.28;;;5.11;39.75
4981;BME280;2507;50.392;7.482;2023-02-28T09:30:05;102035.53;;;5.04;38.90
4981;BME280;2507;50.392;7.482;2023-02-28T09:32:30;102024.75;;;5.19;39.35
4981;BME280;2507;50.392;7.482;2023-02-28T09:34:55;102039.66;;;5.14;38.64
4981;BME280;2507;50.392;7.482;2023-02-28T09:37:21;102040.75;;;5.04;38.97
4981;BME280;2507;50.392;7.482;2023-02-28T09:39:46;102039.69;;;5.12;38.80
4981;BME280;2507;50.392;7.482;2023-02-28T09:42:20;102038.06;;;5.08;38.98
4981;BME280;2507;50.392;7.482;2023-02-28T09:44:47;102024.91;;;5.14;38.12
4981;BME280;2507;50.392;7.482;2023-02-28T09:47:39;102024.94;;;5.45;38.69
4981;BME280;2507;50.392;7.482;2023-02-28T09:52:41;102023.41;;;5.69;37.45
4981;BME280;2507;50.392;7.482;2023-02-28T09:55:28;102021.28;;;5.52;38.10
4981;BME280;2507;50.392;7.482;2023-02-28T09:57:54;102028.03;;;5.59;38.32
4981;BME280;2507;50.392;7.482;2023-02-28T10:00:32;102019.25;;;5.94;37.48
4981;BME280;2507;50.392;7.482;2023-02-28T10:05:52;102023.81;;;6.15;36.66
4981;BME280;2507;50.392;7.482;2023-02-28T10:08:24;102020.50;;;5.49;37.76
4981;BME280;2507;50.392;7.482;2023-02-28T10:10:58;102018.78;;;5.48;37.64
4981;BME280;2507;50.392;7.482;2023-02-28T10:16:08;102011.41;;;5.33;37.34
4981;BME280;2507;50.392;7.482;2023-02-28T10:18:45;102032.31;;;5.28;37.23
4981;BME280;2507;50.392;7.482;2023-02-28T10:21:21;102018.94;;;5.43;37.43
4981;BME280;2507;50.392;7.482;2023-02-28T10:23:48;102023.06;;;5.50;36.85
4981;BME280;2507;50.392;7.482;2023-02-28T10:26:16;102019.91;;;5.70;36.60
4981;BME280;2507;50.392;7.482;2023-02-28T10:28:42;102009.41;;;6.03;36.71
4981;BME280;2507;50.392;7.482;2023-02-28T10:31:15;102009.97;;;5.84;36.45
4981;BME280;2507;50.392;7.482;2023-02-28T10:33:43;102015.13;;;5.87;36.84
4981;BME280;2507;50.392;7.482;2023-02-28T10:36:13;102021.00;;;5.93;36.58
4981;BME280;2507;50.392;7.482;2023-02-28T10:38:39;102016.47;;;6.00;36.35
4981;BME280;2507;50.392;7.482;2023-02-28T10:41:10;102013.50;;;6.12;36.62
4981;BME280;2507;50.392;7.482;2023-02-28T10:43:37;102016.00;;;6.15;37.02
4981;BME280;2507;50.392;7.482;2023-02-28T10:49:02;102016.00;;;6.15;37.14
4981;BME280;2507;50.392;7.482;2023-02-28T10:51:35;102025.03;;;6.33;35.95
4981;BME280;2507;50.392;7.482;2023-02-28T10:54:02;102012.91;;;6.59;36.20
4981;BME280;2507;50.392;7.482;2023-02-28T10:56:28;102020.69;;;6.87;36.48
4981;BME280;2507;50.392;7.482;2023-02-28T10:58:57;102013.09;;;6.79;35.38
4981;BME280;2507;50.392;7.482;2023-02-28T11:01:44;102019.38;;;6.74;36.07
4981;BME280;2507;50.392;7.482;2023-02-28T11:07:20;102005.72;;;6.66;35.29
4981;BME280;2507;50.392;7.482;2023-02-28T11:09:48;102020.66;;;6.61;37.02
4981;BME280;2507;50.392;7.482;2023-02-28T11:14:51;102007.91;;;7.04;36.20
4981;BME280;2507;50.392;7.482;2023-02-28T11:17:23;102010.03;;;6.93;36.60
4981;BME280;2507;50.392;7.482;2023-02-28T11:19:57;102005.03;;;6.87;36.23
4981;BME280;2507;50.392;7.482;2023-02-28T11:22:28;101989.00;;;6.71;36.08
4981;BME280;2507;50.392;7.482;2023-02-28T11:24:59;101989.56;;;6.55;36.47
4981;BME280;2507;50.392;7.482;2023-02-28T11:27:45;101994.09;;;6.76;37.17
4981;BME280;2507;50.392;7.482;2023-02-28T11:32:57;101980.94;;;6.79;36.11
4981;BME280;2507;50.392;7.482;2023-02-28T11:35:38;101980.75;;;6.85;35.98
4981;BME280;2507;50.392;7.482;2023-02-28T11:38:09;101988.75;;;6.53;37.42
4981;BME280;2507;50.392;7.482;2023-02-28T11:43:53;101994.38;;;6.93;35.29
4981;BME280;2507;50.392;7.482;2023-02-28T11:49:35;101986.16;;;7.77;33.89
4981;BME280;2507;50.392;7.482;2023-02-28T11:52:18;101993.19;;;7.75;34.38
4981;BME280;2507;50.392;7.482;2023-02-28T12:00:33;101979.72;;;7.63;33.13
4981;BME280;2507;50.392;7.482;2023-02-28T12:03:16;101975.16;;;7.45;33.02
4981;BME280;2507;50.392;7.482;2023-02-28T12:05:50;101966.53;;;7.66;33.30
4981;BME280;2507;50.392;7.482;2023-02-28T12:11:27;101966.38;;;7.70;33.51
4981;BME280;2507;50.392;7.482;2023-02-28T12:19:17;101967.84;;;6.80;36.16
4981;BME280;2507;50.392;7.482;2023-02-28T12:22:03;101965.72;;;6.67;35.25
4981;BME280;2507;50.392;7.482;2023-02-28T12:27:06;101968.19;;;7.20;34.63
4981;BME280;2507;50.392;7.482;2023-02-28T12:29:45;101970.56;;;7.03;34.40
4981;BME280;2507;50.392;7.482;2023-02-28T12:32:18;101963.81;;;6.96;34.76
4981;BME280;2507;50.392;7.482;2023-02-28T12:34:49;101962.66;;;7.05;34.62
4981;BME280;2507;50.392;7.482;2023-02-28T12:37:50;101969.66;;;6.78;34.27
4981;BME280;2507;50.392;7.482;2023-02-28T12:40:20;101968.41;;;6.64;36.15
4981;BME280;2507;50.392;7.482;2023-02-28T12:42:53;101972.03;;;7.10;34.44
4981;BME280;2507;50.392;7.482;2023-02-28T12:45:31;101951.66;;;7.20;33.78
4981;BME280;2507;50.392;7.482;2023-02-28T12:48:06;101958.91;;;6.87;34.80
4981;BME280;2507;50.392;7.482;2023-02-28T12:50:33;101955.66;;;7.05;34.58
4981;BME280;2507;50.392;7.482;2023-02-28T12:53:35;101953.19;;;7.02;35.69
4981;BME280;2507;50.392;7.482;2023-02-28T12:58:58;101944.66;;;7.22;36.23
4981;BME280;2507;50.392;7.482;2023-02-28T13:02:02;101950.53;;;7.52;34.32
4981;BME280;2507;50.392;7.482;2023-02-28T13:04:43;101954.34;;;7.18;33.64
4981;BME280;2507;50.392;7.482;2023-02-28T13:10:04;101944.28;;;7.08;33.78
4981;BME280;2507;50.392;7.482;2023-02-28T13:12:29;101955.91;;;6.99;35.46
4981;BME280;2507;50.392;7.482;2023-02-28T13:15:07;101944.03;;;7.15;35.58
4981;BME280;2507;50.392;7.482;2023-02-28T13:17:38;101943.84;;;7.45;34.27
4981;BME280;2507;50.392;7.482;2023-02-28T13:20:14;101949.56;;;7.77;33.65
4981;BME280;2507;50.392;7.482;2023-02-28T13:22:49;101942.56;;;7.55;33.89
4981;BME280;2507;50.392;7.482;2023-02-28T13:27:58;101932.38;;;7.49;34.32
4981;BME280;2507;50.392;7.482;2023-02-28T13:33:29;101941.22;;;7.20;34.65
4981;BME280;2507;50.392;7.482;2023-02-28T13:38:41;101925.13;;;7.78;34.18
4981;BME280;2507;50.392;7.482;2023-02-28T13:44:03;101923.66;;;7.71;33.14
4981;BME280;2507;50.392;7.482;2023-02-28T13:46:31;101921.97;;;7.70;33.35
4981;BME280;2507;50.392;7.482;2023-02-28T13:49:17;101918.34;;;7.74;33.36
4981;BME280;2507;50.392;7.482;2023-02-28T13:51:45;101926.44;;;7.90;33.07
4981;BME280;2507;50.392;7.482;2023-02-28T13:54:16;101923.09;;;7.86;33.60
4981;BME280;2507;50.392;7.482;2023-02-28T13:59:49;101929.06;;;7.90;33.20
4981;BME280;2507;50.392;7.482;2023-02-28T14:03:36;101921.63;;;7.79;33.92
4981;BME280;2507;50.392;7.482;2023-02-28T14:05:32;101917.63;;;7.71;33.57
4981;BME280;2507;50.392;7.482;2023-02-28T14:08:04;101912.97;;;7.56;34.33
4981;BME280;2507;50.392;7.482;2023-02-28T14:10:33;101926.34;;;7.70;34.37
4981;BME280;2507;50.392;7.482;2023-02-28T14:13:01;101912.38;;;7.71;33.62
4981;BME280;2507;50.392;7.482;2023-02-28T14:18:01;101905.81;;;7.82;34.16
4981;BME280;2507;50.392;7.482;2023-02-28T14:20:30;101925.38;;;7.72;34.12
4981;BME280;2507;50.392;7.482;2023-02-28T14:25:47;101900.53;;;7.84;34.15
4981;BME280;2507;50.392;7.482;2023-02-28T14:31:28;101896.94;;;7.65;34.75
4981;BME280;2507;50.392;7.482;2023-02-28T14:36:44;101907.78;;;7.54;35.02
4981;BME280;2507;50.392;7.482;2023-02-28T14:39:19;101899.84;;;7.57;34.84
4981;BME280;2507;50.392;7.482;2023-02-28T14:41:45;101902.44;;;7.57;34.69
4981;BME280;2507;50.392;7.482;2023-02-28T14:44:16;101898.53;;;7.22;35.99
4981;BME280;2507;50.392;7.482;2023-02-28T14:46:42;101892.16;;;7.06;36.27
4981;BME280;2507;50.392;7.482;2023-02-28T14:49:26;101896.03;;;7.43;34.94
4981;BME280;2507;50.392;7.482;2023-02-28T14:52:19;101892.22;;;7.51;34.94
4981;BME280;2507;50.392;7.482;2023-02-28T14:54:46;101897.16;;;7.59;34.53
4981;BME280;2507;50.392;7.482;2023-02-28T14:57:50;101897.72;;;7.67;34.74
4981;BME280;2507;50.392;7.482;2023-02-28T15:00:25;101898.91;;;7.81;34.61
4981;BME280;2507;50.392;7.482;2023-02-28T15:02:51;101886.06;;;7.75;34.79
4981;BME280;2507;50.392;7.482;2023-02-28T15:05:34;101881.81;;;7.73;35.32
4981;BME280;2507;50.392;7.482;2023-02-28T15:08:11;101887.94;;;7.72;35.22
4981;BME280;2507;50.392;7.482;2023-02-28T15:10:37;101888.03;;;7.47;35.35
4981;BME280;2507;50.392;7.482;2023-02-28T15:13:07;101885.38;;;7.49;35.56
4981;BME280;2507;50.392;7.482;2023-02-28T15:15:47;101892.06;;;7.56;35.39